createdAt,value
2023-03-26T00:01:39.243Z,9.20
2023-03-26T00:04:08.147Z,9.20
2023-03-26T00:06:39.843Z,9.20
2023-03-26T00:09:13.196Z,9.20
2023-03-26T00:11:40.293Z,9.20
2023-03-26T00:14:07.124Z,9.20
2023-03-26T00:16:34.050Z,9.20
2023-03-26T00:19:02.783Z,9.20
2023-03-26T00:21:31.366Z,9.20
2023-03-26T00:24:06.685Z,9.20
2023-03-26T00:26:37.583Z,9.20
2023-03-26T00:29:06.781Z,9.20
2023-03-26T00:31:34.705Z,9.20
2023-03-26T00:34:03.888Z,9.10
2023-03-26T00:36:32.016Z,9.20
2023-03-26T00:38:58.819Z,9.20
2023-03-26T00:41:30.778Z,9.20
2023-03-26T00:43:59.857Z,9.30
2023-03-26T00:46:30.468Z,9.20
2023-03-26T00:48:58.890Z,9.30
2023-03-26T00:51:28.444Z,9.30
2023-03-26T00:53:56.638Z,9.30
2023-03-26T00:56:23.918Z,9.30
2023-03-26T00:58:50.698Z,9.30
2023-03-26T01:01:27.687Z,9.20
2023-03-26T01:04:08.643Z,9.30
2023-03-26T01:06:41.949Z,9.20
2023-03-26T01:09:20.741Z,9.20
2023-03-26T01:11:49.649Z,9.20
2023-03-26T01:14:24.114Z,9.30
2023-03-26T01:17:00.591Z,9.30
2023-03-26T01:19:41.876Z,9.30
2023-03-26T01:22:20.069Z,9.30
2023-03-26T01:24:52.930Z,9.40
2023-03-26T01:27:49.253Z,9.40
2023-03-26T01:30:42.532Z,9.40
2023-03-26T01:33:30.289Z,9.30
2023-03-26T01:36:48.775Z,9.30
2023-03-26T01:39:40.567Z,9.30
2023-03-26T01:42:16.018Z,9.30
2023-03-26T01:45:11.442Z,9.40
2023-03-26T01:47:41.357Z,9.40
2023-03-26T01:50:10.538Z,9.40
2023-03-26T01:52:37.715Z,9.40
2023-03-26T01:55:06.562Z,9.40
2023-03-26T01:58:02.567Z,9.40
2023-03-26T02:00:39.288Z,9.40
2023-03-26T02:03:32.065Z,9.30
2023-03-26T02:06:22.672Z,9.30
2023-03-26T02:09:06.993Z,9.30
2023-03-26T02:11:37.095Z,9.30
2023-03-26T02:14:08.190Z,9.30
2023-03-26T02:16:35.168Z,9.40
2023-03-26T02:19:04.283Z,9.30
2023-03-26T02:21:33.818Z,9.40
2023-03-26T02:24:04.214Z,9.40
2023-03-26T02:26:33.847Z,9.40
2023-03-26T02:29:01.645Z,9.40
2023-03-26T02:31:30.520Z,9.40
2023-03-26T02:33:57.577Z,9.40
2023-03-26T02:36:27.872Z,9.40
2023-03-26T02:38:58.263Z,9.40
2023-03-26T02:41:25.405Z,9.40
2023-03-26T02:43:52.165Z,9.40
2023-03-26T02:46:18.948Z,9.30
2023-03-26T02:48:48.397Z,9.30
2023-03-26T02:51:18.135Z,9.30
2023-03-26T02:53:46.309Z,9.30
2023-03-26T02:56:13.309Z,9.30
2023-03-26T02:58:40.331Z,9.40
2023-03-26T03:01:07.765Z,9.30
2023-03-26T03:03:36.547Z,9.30
2023-03-26T03:06:03.669Z,9.30
2023-03-26T03:08:30.445Z,9.30
2023-03-26T03:11:03.750Z,9.20
2023-03-26T03:13:30.587Z,9.20
2023-03-26T03:15:57.638Z,9.10
2023-03-26T03:18:25.057Z,9.20
2023-03-26T03:20:52.203Z,9.20
2023-03-26T03:23:19.153Z,9.30
2023-03-26T03:25:46.743Z,9.20
2023-03-26T03:28:14.277Z,9.30
2023-03-26T03:30:41.729Z,9.40
2023-03-26T03:33:08.588Z,9.30
2023-03-26T03:35:35.529Z,9.30
2023-03-26T03:38:04.376Z,9.30
2023-03-26T03:40:31.402Z,9.20
2023-03-26T03:42:58.262Z,9.20
2023-03-26T03:45:25.290Z,9.30
2023-03-26T03:47:53.063Z,9.30
2023-03-26T03:50:20.791Z,9.20
2023-03-26T03:52:47.638Z,9.20
2023-03-26T03:55:15.536Z,9.30
2023-03-26T03:57:42.271Z,9.30
2023-03-26T04:00:11.720Z,9.30
2023-03-26T04:02:38.953Z,9.30
2023-03-26T04:05:06.341Z,9.30
2023-03-26T04:07:33.474Z,9.30
2023-03-26T04:10:03.156Z,9.30
2023-03-26T04:12:31.665Z,9.40
2023-03-26T04:14:59.116Z,9.40
2023-03-26T04:17:26.565Z,9.40
2023-03-26T04:19:54.762Z,9.40
2023-03-26T04:22:23.841Z,9.40
2023-03-26T04:24:54.168Z,9.40
2023-03-26T04:27:28.012Z,9.40
2023-03-26T04:29:55.033Z,9.50
2023-03-26T04:32:30.230Z,9.50
2023-03-26T04:35:00.932Z,9.50
2023-03-26T04:37:34.397Z,9.50
2023-03-26T04:40:12.110Z,9.50
2023-03-26T04:42:41.651Z,9.60
2023-03-26T04:45:11.110Z,9.60
2023-03-26T04:47:39.039Z,9.70
2023-03-26T04:50:09.221Z,9.60
2023-03-26T04:52:37.684Z,9.60
2023-03-26T04:55:18.504Z,9.70
2023-03-26T04:57:50.657Z,9.70
2023-03-26T05:00:19.428Z,9.70
2023-03-26T05:02:50.013Z,9.70
2023-03-26T05:05:18.106Z,9.70
2023-03-26T05:07:45.220Z,9.70
2023-03-26T05:10:15.326Z,9.70
2023-03-26T05:12:42.251Z,9.70
2023-03-26T05:15:11.777Z,9.70
2023-03-26T05:17:41.484Z,9.70
2023-03-26T05:20:23.041Z,9.70
2023-03-26T05:22:51.339Z,9.80
2023-03-26T05:25:19.437Z,9.80
2023-03-26T05:27:48.557Z,9.80
2023-03-26T05:30:21.596Z,9.80
2023-03-26T05:32:49.761Z,9.80
2023-03-26T05:35:19.141Z,9.80
2023-03-26T05:37:48.314Z,9.80
2023-03-26T05:40:17.088Z,9.80
2023-03-26T05:42:45.327Z,9.80
2023-03-26T05:45:15.229Z,9.80
2023-03-26T05:47:42.172Z,9.80
2023-03-26T05:50:11.258Z,9.70
2023-03-26T05:52:38.570Z,9.80
2023-03-26T05:55:06.566Z,9.80
2023-03-26T05:57:35.321Z,9.80
2023-03-26T06:00:04.953Z,9.80
2023-03-26T06:02:31.776Z,9.70
2023-03-26T06:04:58.620Z,9.70
2023-03-26T06:07:27.075Z,9.70
2023-03-26T06:09:54.369Z,9.80
2023-03-26T06:12:21.345Z,9.70
2023-03-26T06:14:48.161Z,9.70
2023-03-26T06:17:14.910Z,9.70
2023-03-26T06:19:41.657Z,9.70
2023-03-26T06:22:08.372Z,9.70
2023-03-26T06:24:35.267Z,9.80
2023-03-26T06:27:02.059Z,9.70
2023-03-26T06:29:28.961Z,9.70
2023-03-26T06:31:59.597Z,9.80
2023-03-26T06:34:30.334Z,9.70
2023-03-26T06:36:57.039Z,9.70
2023-03-26T06:39:23.818Z,9.70
2023-03-26T06:41:50.690Z,9.70
2023-03-26T06:44:18.714Z,9.70
2023-03-26T06:46:46.063Z,9.70
2023-03-26T06:49:12.881Z,9.60
2023-03-26T06:51:41.110Z,9.70
2023-03-26T06:54:07.911Z,9.60
2023-03-26T06:56:34.682Z,9.70
2023-03-26T06:59:01.446Z,9.70
2023-03-26T07:01:28.317Z,9.60
2023-03-26T07:03:55.136Z,9.60
2023-03-26T07:06:26.749Z,9.70
2023-03-26T07:08:55.715Z,9.60
2023-03-26T07:11:25.366Z,9.60
2023-03-26T07:13:52.777Z,9.60
2023-03-26T07:16:19.644Z,9.70
2023-03-26T07:18:48.336Z,9.70
2023-03-26T07:21:16.025Z,9.70
2023-03-26T07:23:43.476Z,9.70
2023-03-26T07:26:45.492Z,9.60
2023-03-26T07:29:38.809Z,9.70
2023-03-26T07:32:31.434Z,9.80
2023-03-26T07:35:09.522Z,9.80
2023-03-26T07:38:07.008Z,9.70
2023-03-26T07:41:05.474Z,9.70
2023-03-26T07:44:14.862Z,9.70
2023-03-26T07:46:42.684Z,9.70
2023-03-26T07:49:12.888Z,9.80
2023-03-26T07:51:40.194Z,9.70
2023-03-26T07:54:10.210Z,9.70
2023-03-26T07:57:11.860Z,9.70
2023-03-26T07:59:38.796Z,9.80
2023-03-26T08:02:39.035Z,9.70
2023-03-26T08:05:19.765Z,9.70
2023-03-26T08:08:13.745Z,9.80
2023-03-26T08:11:11.579Z,9.70
2023-03-26T08:14:25.776Z,9.80
2023-03-26T08:17:12.085Z,9.80
2023-03-26T08:20:18.518Z,9.80
2023-03-26T08:22:58.628Z,9.80
2023-03-26T08:25:49.126Z,9.80
2023-03-26T08:28:48.586Z,9.80
2023-03-26T08:31:17.758Z,9.80
2023-03-26T08:33:45.090Z,9.60
2023-03-26T08:36:11.863Z,9.60
2023-03-26T08:38:40.916Z,9.60
2023-03-26T08:41:11.188Z,9.50
2023-03-26T08:43:43.639Z,9.40
2023-03-26T08:50:03.790Z,9.30
2023-03-26T08:53:12.389Z,9.20
2023-03-26T08:55:51.720Z,9.20
2023-03-26T08:58:55.006Z,9.20
2023-03-26T09:02:02.539Z,9.20
2023-03-26T09:05:02.641Z,9.20
2023-03-26T09:07:56.717Z,9.20
2023-03-26T09:10:41.535Z,9.20
2023-03-26T09:13:52.930Z,9.10
2023-03-26T09:16:50.986Z,9.10
2023-03-26T09:19:56.097Z,9.10
2023-03-26T09:22:31.592Z,9.10
2023-03-26T09:25:15.360Z,9.10
2023-03-26T09:28:43.797Z,9.10
2023-03-26T09:31:57.956Z,9.10
2023-03-26T09:34:58.939Z,9.10
2023-03-26T09:38:14.625Z,9.10
2023-03-26T09:41:22.810Z,9.00
2023-03-26T09:44:12.529Z,9.00
2023-03-26T09:47:32.201Z,9.00
2023-03-26T09:50:34.591Z,9.00
2023-03-26T09:53:51.162Z,9.00
2023-03-26T09:56:49.774Z,8.90
2023-03-26T09:59:53.834Z,9.00
2023-03-26T10:03:04.438Z,9.00
2023-03-26T10:05:41.363Z,9.00
2023-03-26T10:08:24.672Z,9.00
2023-03-26T10:10:59.660Z,9.00
2023-03-26T10:13:58.238Z,9.00
2023-03-26T10:16:53.125Z,9.10
2023-03-26T10:19:57.054Z,9.10
2023-03-26T10:23:02.170Z,9.10
2023-03-26T10:25:36.470Z,9.00
2023-03-26T10:28:53.574Z,8.90
2023-03-26T10:31:42.554Z,9.00
2023-03-26T10:34:34.474Z,9.10
2023-03-26T10:37:14.019Z,8.90
2023-03-26T10:40:06.854Z,8.90
2023-03-26T10:42:48.202Z,8.90
2023-03-26T10:45:43.714Z,8.90
2023-03-26T10:49:08.232Z,8.90
2023-03-26T10:51:51.218Z,8.90
2023-03-26T10:54:57.857Z,9.00
2023-03-26T10:58:08.655Z,9.00
2023-03-26T11:00:48.292Z,9.00
2023-03-26T11:03:33.508Z,9.00
2023-03-26T11:06:25.423Z,9.00
2023-03-26T11:09:30.583Z,9.00
2023-03-26T11:12:27.109Z,9.00
2023-03-26T11:15:26.407Z,9.00
2023-03-26T11:18:18.836Z,9.00
2023-03-26T11:21:19.969Z,9.10
2023-03-26T11:24:19.436Z,9.30
2023-03-26T11:27:26.652Z,9.20
2023-03-26T11:30:07.269Z,9.20
2023-03-26T11:32:49.895Z,9.20
2023-03-26T11:35:40.383Z,9.10
2023-03-26T11:38:19.735Z,9.00
2023-03-26T11:40:57.306Z,9.10
2023-03-26T11:43:36.722Z,9.10
2023-03-26T11:46:10.183Z,9.10
2023-03-26T11:48:57.507Z,9.10
2023-03-26T11:51:27.811Z,9.10
2023-03-26T11:53:54.732Z,9.20
2023-03-26T11:56:24.226Z,9.30
2023-03-26T11:59:12.606Z,9.30
2023-03-26T12:02:04.882Z,9.30
2023-03-26T12:04:40.863Z,9.20
2023-03-26T12:07:34.907Z,9.20
2023-03-26T12:10:18.295Z,9.30
2023-03-26T12:12:47.924Z,9.30
2023-03-26T12:15:21.323Z,9.40
2023-03-26T12:17:56.436Z,9.40
2023-03-26T12:20:26.342Z,9.60
2023-03-26T12:22:59.055Z,9.70
2023-03-26T12:25:32.977Z,9.70
2023-03-26T12:28:18.212Z,9.70
2023-03-26T12:31:02.473Z,9.70
2023-03-26T12:33:35.200Z,9.60
2023-03-26T12:36:26.972Z,9.70
2023-03-26T12:40:05.933Z,9.80
2023-03-26T12:43:51.408Z,9.90
2023-03-26T12:44:59.270Z,9.90
2023-03-26T12:48:00.765Z,9.90
2023-03-26T12:50:34.062Z,10.10
2023-03-26T12:53:37.877Z,10.30
2023-03-26T12:56:19.737Z,10.20
2023-03-26T12:58:55.477Z,10.20
2023-03-26T13:02:01.162Z,10.10
2023-03-26T13:05:05.086Z,10.00
2023-03-26T13:07:59.722Z,9.90
2023-03-26T13:11:01.502Z,9.80
2023-03-26T13:14:10.036Z,9.90
2023-03-26T13:17:15.025Z,10.00
2023-03-26T13:20:26.932Z,10.10
2023-03-26T13:23:22.046Z,10.10
2023-03-26T13:26:24.307Z,10.00
2023-03-26T13:29:15.890Z,10.10
2023-03-26T13:32:23.217Z,10.10
2023-03-26T13:35:02.576Z,10.30
2023-03-26T13:37:41.150Z,10.50
2023-03-26T13:40:52.105Z,10.50
2023-03-26T13:43:31.883Z,10.50
2023-03-26T13:46:20.868Z,10.50
2023-03-26T13:49:15.625Z,10.70
2023-03-26T13:51:54.769Z,10.60
2023-03-26T13:54:52.070Z,10.40
2023-03-26T13:57:33.920Z,10.30
2023-03-26T14:00:37.990Z,10.30
2023-03-26T14:03:20.884Z,10.20
2023-03-26T14:05:55.841Z,10.20
2023-03-26T14:08:33.163Z,10.10
2023-03-26T14:11:11.249Z,10.10
2023-03-26T14:14:04.086Z,10.00
2023-03-26T14:16:47.278Z,10.10
2023-03-26T14:20:00.564Z,10.00
2023-03-26T14:22:55.531Z,9.90
2023-03-26T14:25:55.945Z,9.80
2023-03-26T14:28:57.953Z,9.70
2023-03-26T14:32:09.640Z,9.70
2023-03-26T14:35:13.216Z,9.90
2023-03-26T14:37:48.985Z,9.70
2023-03-26T14:40:54.510Z,9.70
2023-03-26T14:44:00.908Z,9.70
2023-03-26T14:46:30.455Z,9.70
2023-03-26T14:49:34.362Z,9.60
2023-03-26T14:52:18.321Z,9.70
2023-03-26T14:54:50.578Z,9.70
2023-03-26T14:57:41.751Z,9.60
2023-03-26T15:01:14.722Z,9.70
2023-03-26T15:04:31.215Z,9.80
2023-03-26T15:07:18.706Z,9.70
2023-03-26T15:09:51.510Z,9.80
2023-03-26T15:13:15.357Z,9.60
2023-03-26T15:16:17.754Z,9.50
2023-03-26T15:19:20.471Z,9.60
2023-03-26T15:22:28.012Z,9.50
2023-03-26T15:25:29.265Z,9.50
2023-03-26T15:28:43.090Z,9.60
2023-03-26T15:31:50.056Z,9.70
2023-03-26T15:34:35.634Z,9.50
2023-03-26T15:37:39.456Z,9.30
2023-03-26T15:40:54.496Z,9.30
2023-03-26T15:43:22.328Z,9.30
2023-03-26T15:46:09.831Z,9.20
2023-03-26T15:48:45.629Z,9.20
2023-03-26T15:51:46.980Z,9.20
2023-03-26T15:54:36.480Z,9.20
2023-03-26T15:57:41.776Z,9.40
2023-03-26T16:00:31.744Z,9.30
2023-03-26T16:03:10.311Z,9.10
2023-03-26T16:06:06.367Z,9.10
2023-03-26T16:09:09.988Z,9.00
2023-03-26T16:12:11.398Z,8.70
2023-03-26T16:14:47.987Z,8.80
2023-03-26T16:17:23.338Z,8.80
2023-03-26T16:20:19.919Z,8.70
2023-03-26T16:23:07.039Z,8.70
2023-03-26T16:25:54.138Z,8.80
2023-03-26T16:28:45.708Z,8.80
2023-03-26T16:31:37.321Z,8.60
2023-03-26T16:34:12.610Z,8.70
2023-03-26T16:36:49.900Z,8.60
2023-03-26T16:39:44.315Z,8.60
2023-03-26T16:42:39.680Z,8.50
2023-03-26T16:45:21.782Z,8.60
2023-03-26T16:48:30.415Z,8.70
2023-03-26T16:51:22.726Z,8.70
2023-03-26T16:54:25.262Z,8.50
2023-03-26T16:57:24.470Z,8.30
2023-03-26T17:00:16.712Z,8.30
2023-03-26T17:03:39.521Z,8.30
2023-03-26T17:06:34.035Z,8.20
2023-03-26T17:09:18.003Z,8.20
2023-03-26T17:11:56.599Z,8.10
2023-03-26T17:14:42.740Z,8.00
2023-03-26T17:17:37.888Z,7.90
2023-03-26T17:20:33.381Z,8.00
2023-03-26T17:23:31.501Z,8.10
2023-03-26T17:26:47.465Z,8.10
2023-03-26T17:29:49.770Z,8.00
2023-03-26T17:32:17.377Z,7.90
2023-03-26T17:34:50.402Z,7.90
2023-03-26T17:37:17.328Z,7.90
2023-03-26T17:39:46.048Z,7.80
2023-03-26T17:42:39.022Z,7.80
2023-03-26T17:45:30.090Z,7.80
2023-03-26T17:48:25.461Z,7.90
2023-03-26T17:51:38.315Z,8.00
2023-03-26T17:54:32.717Z,7.90
2023-03-26T17:57:36.347Z,7.80
2023-03-26T18:00:07.540Z,7.80
2023-03-26T18:02:43.900Z,7.80
2023-03-26T18:05:16.164Z,7.80
2023-03-26T18:07:59.598Z,7.70
2023-03-26T18:11:06.029Z,7.70
2023-03-26T18:13:51.495Z,7.70
2023-03-26T18:16:38.803Z,7.60
2023-03-26T18:19:22.388Z,7.50
2023-03-26T18:22:01.257Z,7.60
2023-03-26T18:24:44.299Z,7.50
2023-03-26T18:27:21.477Z,7.50
2023-03-26T18:29:57.273Z,7.50
2023-03-26T18:32:33.652Z,7.40
2023-03-26T18:35:17.026Z,7.50
2023-03-26T18:37:45.964Z,7.50
2023-03-26T18:40:21.420Z,7.50
2023-03-26T18:43:00.861Z,7.50
2023-03-26T18:45:38.694Z,7.40
2023-03-26T18:48:18.054Z,7.40
2023-03-26T18:50:47.723Z,7.40
2023-03-26T18:53:20.771Z,7.40
2023-03-26T18:55:50.603Z,7.40
2023-03-26T18:58:35.958Z,7.40
2023-03-26T19:01:20.258Z,7.40
2023-03-26T19:03:53.039Z,7.30
2023-03-26T19:06:20.893Z,7.30
2023-03-26T19:08:50.368Z,7.20
2023-03-26T19:11:18.336Z,7.10
2023-03-26T19:13:59.900Z,7.00
2023-03-26T19:16:35.223Z,7.00
2023-03-26T19:19:07.890Z,7.00
2023-03-26T19:21:38.858Z,6.90
2023-03-26T19:24:06.221Z,6.80
2023-03-26T19:26:36.496Z,6.90
2023-03-26T19:29:06.869Z,6.90
2023-03-26T19:31:39.148Z,6.90
2023-03-26T19:34:19.531Z,6.80
2023-03-26T19:36:59.440Z,6.80
2023-03-26T19:39:42.584Z,6.80
2023-03-26T19:42:18.192Z,6.70
2023-03-26T19:44:45.648Z,6.80
2023-03-26T19:47:43.748Z,6.80
2023-03-26T19:50:26.895Z,6.70
2023-03-26T19:53:22.116Z,6.70
2023-03-26T19:56:07.735Z,6.60
2023-03-26T19:58:36.758Z,6.70
2023-03-26T20:01:04.732Z,6.60
2023-03-26T20:03:44.058Z,6.60
2023-03-26T20:06:14.893Z,6.60
2023-03-26T20:08:42.706Z,6.60
2023-03-26T20:11:25.780Z,6.60
2023-03-26T20:13:52.627Z,6.70
2023-03-26T20:16:29.046Z,6.60
2023-03-26T20:18:58.337Z,6.70
2023-03-26T20:21:27.161Z,6.70
2023-03-26T20:23:54.698Z,6.70
2023-03-26T20:26:25.409Z,6.70
2023-03-26T20:28:54.486Z,6.70
2023-03-26T20:31:25.292Z,6.70
2023-03-26T20:33:54.256Z,6.60
2023-03-26T20:36:33.455Z,6.60
2023-03-26T20:39:07.589Z,6.60
2023-03-26T20:41:38.202Z,6.70
2023-03-26T20:44:15.265Z,6.70
2023-03-26T20:46:44.182Z,6.60
2023-03-26T20:49:12.145Z,6.50
2023-03-26T20:51:41.995Z,6.50
2023-03-26T20:54:25.438Z,6.50
2023-03-26T20:56:54.209Z,6.60
2023-03-26T20:59:26.079Z,6.50
2023-03-26T21:01:54.539Z,6.50
2023-03-26T21:04:22.818Z,6.50
2023-03-26T21:06:49.718Z,6.50
2023-03-26T21:09:23.932Z,6.40
2023-03-26T21:12:04.963Z,6.50
2023-03-26T21:14:41.265Z,6.50
2023-03-26T21:17:19.204Z,6.40
2023-03-26T21:19:47.119Z,6.40
2023-03-26T21:22:43.588Z,6.30
2023-03-26T21:25:36.761Z,6.30
2023-03-26T21:28:19.444Z,6.30
2023-03-26T21:30:47.013Z,6.40
2023-03-26T21:33:13.811Z,6.30
2023-03-26T21:35:42.005Z,6.30
2023-03-26T21:38:11.575Z,6.30
2023-03-26T21:40:40.604Z,6.40
2023-03-26T21:43:12.538Z,6.40
2023-03-26T21:45:39.972Z,6.30
2023-03-26T21:48:07.495Z,6.40
2023-03-26T21:50:34.862Z,6.40
2023-03-26T21:53:02.475Z,6.30
2023-03-26T21:55:38.559Z,6.40
2023-03-26T21:58:36.727Z,6.50
2023-03-26T22:01:45.648Z,6.50
2023-03-26T22:04:49.970Z,6.40
2023-03-26T22:07:27.400Z,6.30
2023-03-26T22:09:54.561Z,6.20
2023-03-26T22:12:21.266Z,6.10
2023-03-26T22:14:48.074Z,6.10
2023-03-26T22:17:19.132Z,6.20
2023-03-26T22:19:45.952Z,6.20
2023-03-26T22:22:12.822Z,6.20
2023-03-26T22:24:41.649Z,6.30
2023-03-26T22:27:08.691Z,6.30
2023-03-26T22:29:35.422Z,6.20
2023-03-26T22:32:03.479Z,6.20
2023-03-26T22:34:31.674Z,6.20
2023-03-26T22:36:58.397Z,6.20
2023-03-26T22:39:25.200Z,6.00
2023-03-26T22:41:51.942Z,6.00
2023-03-26T22:44:20.507Z,6.00
2023-03-26T22:46:51.124Z,6.00
2023-03-26T22:49:18.687Z,6.10
2023-03-26T22:51:45.420Z,6.10
2023-03-26T22:54:12.158Z,6.20
2023-03-26T22:56:38.960Z,6.20
2023-03-26T22:59:06.294Z,6.30
2023-03-26T23:01:33.156Z,6.40
2023-03-26T23:03:59.903Z,6.40
2023-03-26T23:06:26.799Z,6.30
2023-03-26T23:08:55.115Z,6.30
2023-03-26T23:11:22.840Z,6.20
2023-03-26T23:13:51.227Z,6.00
2023-03-26T23:16:19.681Z,6.00
2023-03-26T23:18:46.540Z,6.00
2023-03-26T23:21:20.131Z,6.00
2023-03-26T23:23:49.275Z,6.00
2023-03-26T23:26:16.222Z,6.00
2023-03-26T23:28:43.191Z,5.90
2023-03-26T23:31:12.263Z,6.00
2023-03-26T23:33:45.657Z,5.80
2023-03-26T23:36:18.689Z,5.80
2023-03-26T23:38:49.332Z,5.90
2023-03-26T23:41:21.349Z,5.90
2023-03-26T23:43:55.565Z,5.80
2023-03-26T23:46:25.374Z,5.70
2023-03-26T23:48:53.011Z,5.40
2023-03-26T23:51:21.643Z,5.30
2023-03-26T23:53:49.323Z,5.30
2023-03-26T23:56:17.131Z,5.20
2023-03-26T23:58:44.217Z,5.10
